Time;durP1;ratioP1;P1;durP2;ratioP2;P2;SDS_P1;SDS_P2;PMS_P1;PMS_P2;Temp;Humidity;BMP_temperature;BMP_pressure;BME280_temperature;BME280_humidity;BME280_pressure;Samples;Min_cycle;Max_cycle;Signal;HPM_P1;HPM_P2
2021/01/08 00:00:53;;;;;;;9.80;1.88;;;;;;;25.51;38.21;97976.50;4953641;28;20207;-63
2021/01/08 00:03:19;;;;;;;8.25;1.60;;;;;;;25.60;38.58;97984.22;4955547;28;20294;-62
2021/01/08 00:05:45;;;;;;;4.55;1.67;;;;;;;25.56;37.83;97982.09;4954337;28;20382;-63
2021/01/08 00:08:11;;;;;;;6.90;2.05;;;;;;;25.56;37.90;97982.91;4952910;28;20268;-62
2021/01/08 00:10:37;;;;;;;5.70;1.63;;;;;;;25.59;37.68;97973.69;4953909;28;20207;-62
2021/01/08 00:13:03;;;;;;;5.10;1.92;;;;;;;25.60;37.70;97972.69;4954205;28;20684;-62
2021/01/08 00:15:30;;;;;;;6.28;1.95;;;;;;;25.64;37.89;97969.41;4953902;28;20258;-62
2021/01/08 00:17:56;;;;;;;8.93;1.88;;;;;;;25.65;38.63;97975.63;4953936;28;20550;-61
2021/01/08 00:20:23;;;;;;;5.15;1.50;;;;;;;25.66;38.66;97971.91;4954502;28;20246;-62
2021/01/08 00:22:49;;;;;;;5.30;1.80;;;;;;;25.58;38.06;97972.88;4952425;28;20203;-61
2021/01/08 00:25:15;;;;;;;7.53;1.80;;;;;;;25.58;38.54;97974.69;4953554;28;20215;-63
2021/01/08 00:27:41;;;;;;;5.00;1.85;;;;;;;25.65;38.56;97978.28;4955167;28;20211;-62
2021/01/08 00:30:09;;;;;;;11.13;1.73;;;;;;;25.71;37.93;97969.47;4952882;28;20222;-62
2021/01/08 00:32:36;;;;;;;5.82;2.00;;;;;;;25.78;36.93;97973.03;4955198;28;20268;-63
2021/01/08 00:35:02;;;;;;;6.93;1.80;;;;;;;25.56;38.73;97980.25;4954608;28;20211;-63
2021/01/08 00:37:30;;;;;;;3.75;1.50;;;;;;;25.60;38.49;97984.22;4954213;28;20602;-64
2021/01/08 00:39:56;;;;;;;4.65;1.50;;;;;;;25.61;37.95;97980.53;4954656;28;20752;-61
2021/01/08 00:42:22;;;;;;;3.60;1.40;;;;;;;25.53;39.00;97986.00;4954013;28;20209;-62
2021/01/08 00:44:48;;;;;;;5.85;1.50;;;;;;;25.51;38.98;97974.63;4952480;28;20578;-62
2021/01/08 00:47:14;;;;;;;4.00;1.77;;;;;;;25.52;38.34;97978.97;4953256;28;20218;-63
2021/01/08 00:49:41;;;;;;;4.72;1.35;;;;;;;25.43;38.63;97975.63;4952639;28;20270;-62
2021/01/08 00:52:07;;;;;;;5.22;1.50;;;;;;;25.41;38.03;97974.94;4952323;28;20260;-62
2021/01/08 00:54:33;;;;;;;4.47;1.88;;;;;;;25.40;38.72;97976.00;4952702;28;20593;-63
2021/01/08 00:56:59;;;;;;;3.38;1.38;;;;;;;25.37;38.46;97979.03;4952319;28;20249;-62
2021/01/08 00:59:25;;;;;;;2.85;1.50;;;;;;;25.28;38.92;97969.47;4951909;28;20230;-62
2021/01/08 01:01:51;;;;;;;6.47;1.70;;;;;;;25.30;38.31;97986.19;4953741;28;20206;-62
2021/01/08 01:04:17;;;;;;;2.28;1.13;;;;;;;25.31;38.05;97979.78;4952048;28;20532;-62
2021/01/08 01:06:45;;;;;;;3.97;1.40;;;;;;;25.24;39.55;97984.22;4953930;28;20293;-62
2021/01/08 01:09:11;;;;;;;8.18;1.80;;;;;;;25.26;39.53;97982.19;4953416;28;20618;-63
2021/01/08 01:11:39;;;;;;;4.05;1.85;;;;;;;25.21;38.91;97979.25;4954492;28;20225;-62
2021/01/08 01:14:05;;;;;;;3.75;1.30;;;;;;;25.14;38.74;97989.06;4953800;28;20199;-62
2021/01/08 01:16:31;;;;;;;3.15;1.35;;;;;;;25.16;38.41;97993.19;4952718;28;20654;-62
2021/01/08 01:18:58;;;;;;;4.35;1.30;;;;;;;25.16;38.04;97987.84;4953199;28;20234;-62
2021/01/08 01:21:25;;;;;;;3.85;1.30;;;;;;;25.12;38.47;97995.41;4952887;28;20696;-63
2021/01/08 01:23:52;;;;;;;5.18;1.35;;;;;;;25.07;39.43;97989.81;4952978;28;20221;-63
2021/01/08 01:26:18;;;;;;;5.70;1.50;;;;;;;25.03;39.33;97996.56;4952427;28;20211;-63
2021/01/08 01:28:45;;;;;;;3.60;1.38;;;;;;;25.03;38.80;98004.59;4953124;28;20314;-63
2021/01/08 01:31:11;;;;;;;2.92;0.90;;;;;;;24.99;40.17;98000.59;4950875;28;20217;-62
2021/01/08 01:33:37;;;;;;;2.28;1.15;;;;;;;25.01;39.79;97995.06;4951936;28;20237;-62
2021/01/08 01:36:05;;;;;;;2.05;1.30;;;;;;;25.01;39.07;97987.06;4953362;28;20378;-62
2021/01/08 01:38:31;;;;;;;2.13;1.30;;;;;;;24.96;39.80;97990.28;4953270;28;20241;-59
2021/01/08 01:40:58;;;;;;;3.90;1.40;;;;;;;24.99;38.94;98003.28;4953830;28;20243;-62
2021/01/08 01:43:24;;;;;;;1.60;1.17;;;;;;;24.93;38.89;97996.84;4950393;28;20272;-63
2021/01/08 01:45:50;;;;;;;1.85;1.23;;;;;;;24.93;39.21;97999.53;4952335;28;20294;-63
2021/01/08 01:48:18;;;;;;;7.90;1.48;;;;;;;24.89;39.96;97998.22;4951176;28;20670;-63
2021/01/08 01:50:44;;;;;;;2.83;1.35;;;;;;;24.87;39.46;97997.59;4954053;28;20209;-63
2021/01/08 01:53:11;;;;;;;3.72;1.23;;;;;;;24.87;39.10;97999.44;4951573;28;20597;-63
2021/01/08 01:55:39;;;;;;;2.53;1.08;;;;;;;24.80;40.43;98009.19;4952330;28;20613;-63
2021/01/08 01:58:06;;;;;;;2.03;1.10;;;;;;;24.86;40.15;98000.44;4952689;28;20312;-63
2021/01/08 02:00:32;;;;;;;2.78;1.10;;;;;;;24.85;40.20;98007.66;4952608;28;20229;-63
2021/01/08 02:03:06;;;;;;;2.65;1.15;;;;;;;24.80;39.21;98010.06;4950088;28;20214;-63
2021/01/08 02:05:33;;;;;;;1.58;0.90;;;;;;;24.77;39.89;98014.94;4952349;28;20202;-63
2021/01/08 02:08:03;;;;;;;4.13;1.20;;;;;;;24.73;39.47;98009.13;4950780;28;20203;-63
2021/01/08 02:10:36;;;;;;;3.25;1.13;;;;;;;24.74;39.91;98000.91;4952356;28;20198;-63
2021/01/08 02:13:04;;;;;;;2.88;1.23;;;;;;;24.74;40.24;98005.44;4953056;28;20601;-63
2021/01/08 02:15:32;;;;;;;2.38;1.00;;;;;;;24.74;40.16;98006.25;4952410;28;20225;-62
2021/01/08 02:18:00;;;;;;;1.02;0.90;;;;;;;24.73;39.71;98004.63;4951115;28;20230;-62
2021/01/08 02:20:26;;;;;;;2.83;0.90;;;;;;;24.74;40.12;98000.09;4952681;28;20203;-62
2021/01/08 02:22:59;;;;;;;2.22;1.10;;;;;;;24.69;40.30;98013.19;4951967;28;20203;-63
2021/01/08 02:25:28;;;;;;;3.60;1.17;;;;;;;24.69;39.19;98014.00;4952097;28;20546;-63
2021/01/08 02:28:20;;;;;;;1.90;1.00;;;;;;;24.64;39.33;98008.41;4952066;28;20236;-63
2021/01/08 02:30:47;;;;;;;2.13;1.08;;;;;;;24.66;39.82;98006.34;4951546;28;20217;-62
2021/01/08 02:33:14;;;;;;;2.47;1.08;;;;;;;24.66;39.50;98003.69;4952609;28;20625;-62
2021/01/08 02:35:41;;;;;;;3.25;1.05;;;;;;;24.63;40.24;98004.09;4950246;28;20215;-62
2021/01/08 02:38:08;;;;;;;2.47;1.00;;;;;;;24.64;40.18;98004.91;4950504;28;20637;-62
2021/01/08 02:40:35;;;;;;;3.17;1.15;;;;;;;24.59;39.28;98002.78;4950696;28;20321;-63
2021/01/08 02:43:03;;;;;;;3.40;1.00;;;;;;;24.67;39.92;97996.50;4950661;28;20233;-62
2021/01/08 02:45:30;;;;;;;4.55;1.23;;;;;;;24.66;39.33;98002.88;4952750;28;20216;-62
2021/01/08 02:47:56;;;;;;;2.88;1.10;;;;;;;24.65;39.84;98002.03;4950942;28;20404;-63
2021/01/08 02:50:22;;;;;;;1.63;1.23;;;;;;;24.58;39.96;98001.13;4950040;28;20583;-62
2021/01/08 02:52:53;;;;;;;2.63;1.00;;;;;;;24.60;40.49;97999.09;4951449;28;20348;-62
2021/01/08 02:55:25;;;;;;;2.40;1.00;;;;;;;24.56;39.72;97998.66;4951963;28;20293;-62
2021/01/08 02:57:53;;;;;;;4.75;1.20;;;;;;;24.58;40.20;97995.78;4951739;28;20206;-62
2021/01/08 03:00:19;;;;;;;3.88;1.00;;;;;;;24.54;40.40;97997.13;4951272;28;20226;-62
2021/01/08 03:02:45;;;;;;;2.08;1.10;;;;;;;24.56;40.15;97993.31;4949630;28;20214;-62
2021/01/08 03:05:12;;;;;;;1.30;0.90;;;;;;;24.52;39.80;97985.81;4949999;28;20249;-62
2021/01/08 03:07:40;;;;;;;2.30;1.05;;;;;;;24.53;40.23;97992.78;4953917;28;20276;-62
2021/01/08 03:10:08;;;;;;;2.88;1.00;;;;;;;24.46;40.56;97991.88;4954959;28;20229;-62
2021/01/08 03:12:36;;;;;;;2.17;1.20;;;;;;;24.49;39.89;97992.31;4953323;28;20215;-62
2021/01/08 03:15:07;;;;;;;1.67;0.90;;;;;;;24.48;40.32;97995.19;4955995;28;20334;-63
2021/01/08 03:17:33;;;;;;;1.25;0.90;;;;;;;24.52;40.12;97983.13;4955388;28;20598;-62
2021/01/08 03:19:59;;;;;;;2.13;0.93;;;;;;;24.50;40.41;97985.16;4953797;28;20732;-62
2021/01/08 03:22:25;;;;;;;1.85;0.93;;;;;;;24.50;39.66;97990.50;4955424;28;20489;-63
2021/01/08 03:24:51;;;;;;;1.70;1.00;;;;;;;24.47;39.56;97982.84;4954102;28;20202;-62
2021/01/08 03:27:17;;;;;;;1.73;0.93;;;;;;;24.44;40.28;97984.03;4953293;28;20210;-62
2021/01/08 03:29:43;;;;;;;1.85;1.00;;;;;;;24.50;39.39;97979.81;4954299;28;20223;-62
2021/01/08 03:32:10;;;;;;;2.53;1.10;;;;;;;24.49;40.42;97978.16;4955089;28;20207;-60
2021/01/08 03:34:36;;;;;;;2.88;1.00;;;;;;;24.48;39.69;97976.47;4955504;28;20213;-63
2021/01/08 03:37:02;;;;;;;2.38;0.93;;;;;;;24.39;39.78;97981.91;4954799;28;20211;-62
2021/01/08 03:39:28;;;;;;;2.42;0.90;;;;;;;24.45;39.51;97979.50;4953225;28;20363;-62
2021/01/08 03:41:54;;;;;;;1.63;0.82;;;;;;;24.47;40.47;97975.66;4954324;28;20207;-62
2021/01/08 03:44:21;;;;;;;2.47;1.17;;;;;;;24.52;40.28;97980.47;4953814;28;20199;-62
2021/01/08 03:46:47;;;;;;;3.08;1.00;;;;;;;24.55;39.84;97986.28;4953753;28;20211;-62
2021/01/08 03:49:13;;;;;;;1.65;1.10;;;;;;;24.62;40.05;97978.34;4953716;28;20630;-62
2021/01/08 03:51:39;;;;;;;1.63;0.82;;;;;;;24.61;39.82;97979.34;4954379;28;20207;-62
2021/01/08 03:54:06;;;;;;;2.40;1.05;;;;;;;24.62;39.02;97980.22;4954009;28;20207;-62
2021/01/08 03:56:32;;;;;;;2.35;1.05;;;;;;;24.63;39.76;97981.84;4954557;28;20273;-62
2021/01/08 03:58:58;;;;;;;1.88;0.90;;;;;;;24.63;39.77;97981.84;4961422;28;20226;-62
2021/01/08 04:01:24;;;;;;;3.25;0.85;;;;;;;24.63;39.11;97966.66;4973935;28;20216;-63
2021/01/08 04:03:50;;;;;;;1.77;0.80;;;;;;;24.59;39.61;97972.56;4962245;28;20207;-61
2021/01/08 04:06:17;;;;;;;1.30;0.80;;;;;;;24.52;40.01;97975.94;4957485;28;20210;-63
2021/01/08 04:08:43;;;;;;;1.50;0.70;;;;;;;24.61;39.08;97978.53;4955083;28;20313;-63
2021/01/08 04:11:09;;;;;;;1.50;0.80;;;;;;;24.55;39.63;97978.28;4954090;28;20202;-63
2021/01/08 04:13:35;;;;;;;1.77;0.93;;;;;;;24.55;39.18;97974.78;4954890;28;20267;-62
2021/01/08 04:16:01;;;;;;;1.33;0.75;;;;;;;24.60;39.71;97972.38;4953422;28;20203;-62
2021/01/08 04:18:27;;;;;;;3.83;0.98;;;;;;;24.53;40.21;97972.25;4953586;28;20729;-63
2021/01/08 04:20:53;;;;;;;2.30;0.90;;;;;;;24.55;39.65;97970.25;4953323;28;20202;-63
2021/01/08 04:23:20;;;;;;;1.42;0.70;;;;;;;24.53;39.95;97964.25;4953478;28;20297;-62
2021/01/08 04:25:46;;;;;;;2.05;1.00;;;;;;;24.50;39.62;97967.28;4952569;28;20207;-61
2021/01/08 04:28:12;;;;;;;2.58;0.90;;;;;;;24.48;39.84;97968.47;4953714;28;20203;-62
2021/01/08 04:30:38;;;;;;;2.03;0.77;;;;;;;24.50;39.74;97971.81;4953998;28;20207;-62
2021/01/08 04:33:05;;;;;;;2.58;1.02;;;;;;;24.47;39.57;97969.50;4954379;28;20269;-62
2021/01/08 04:35:31;;;;;;;2.45;1.00;;;;;;;24.44;40.33;97973.34;4954142;28;20210;-62
2021/01/08 04:37:57;;;;;;;2.22;0.90;;;;;;;24.48;40.58;97971.97;4954034;28;20225;-62
2021/01/08 04:40:24;;;;;;;2.72;0.90;;;;;;;24.53;40.43;97968.72;4953724;28;20285;-62
2021/01/08 04:42:50;;;;;;;1.50;0.80;;;;;;;24.60;39.29;97963.50;4952892;28;20236;-61
2021/01/08 04:45:17;;;;;;;2.45;1.00;;;;;;;24.77;40.00;97966.84;4954548;28;20206;-61
2021/01/08 04:47:46;;;;;;;2.25;0.88;;;;;;;24.85;39.62;97958.69;4953197;28;20309;-63
2021/01/08 04:50:14;;;;;;;1.77;0.85;;;;;;;24.86;38.96;97966.50;4955486;28;20304;-61
2021/01/08 04:52:40;;;;;;;1.70;0.90;;;;;;;24.97;38.60;97956.38;4955551;28;20288;-62
2021/01/08 04:55:07;;;;;;;1.67;0.80;;;;;;;25.03;38.96;97959.13;4953700;28;20225;-62
2021/01/08 04:57:37;;;;;;;2.80;0.80;;;;;;;25.14;39.40;97957.78;4954118;28;20229;-63
2021/01/08 05:00:05;;;;;;;1.55;0.90;;;;;;;25.02;38.55;97954.78;4954567;28;20234;-62
2021/01/08 05:02:31;;;;;;;0.80;0.63;;;;;;;25.10;38.95;97957.34;4954787;28;20203;-62
2021/01/08 05:04:58;;;;;;;1.05;0.80;;;;;;;25.16;38.88;97954.91;4953333;28;20214;-62
2021/01/08 05:07:26;;;;;;;0.95;0.57;;;;;;;25.20;39.01;97961.56;4952729;28;20218;-62
2021/01/08 05:09:52;;;;;;;1.05;0.70;;;;;;;25.19;39.43;97959.88;4953048;28;20227;-63
2021/01/08 05:12:18;;;;;;;1.13;0.82;;;;;;;25.26;38.94;97952.75;4953082;28;20202;-62
2021/01/08 05:14:45;;;;;;;1.92;0.98;;;;;;;25.32;39.09;97965.41;4951064;28;20206;-63
2021/01/08 05:17:11;;;;;;;0.93;0.60;;;;;;;25.22;38.51;97963.00;4951947;28;20203;-63
2021/01/08 05:19:37;;;;;;;0.85;0.60;;;;;;;25.26;38.93;97955.44;4950950;28;20579;-63
2021/01/08 05:22:04;;;;;;;1.33;1.00;;;;;;;25.29;39.08;97958.56;4950870;28;20241;-62
2021/01/08 05:24:30;;;;;;;1.73;0.77;;;;;;;25.38;39.18;97959.31;4950999;28;20222;-63
2021/01/08 05:26:57;;;;;;;1.10;0.70;;;;;;;25.30;38.28;97956.75;4950891;28;20210;-62
2021/01/08 05:29:28;;;;;;;0.90;0.75;;;;;;;25.33;37.93;97956.38;4952762;28;20249;-63
2021/01/08 05:31:55;;;;;;;1.10;0.73;;;;;;;25.41;38.53;97955.41;4953349;28;20213;-62
2021/01/08 05:34:26;;;;;;;0.90;0.60;;;;;;;25.40;38.01;97951.09;4952857;28;20647;-62
2021/01/08 05:36:53;;;;;;;1.52;0.82;;;;;;;25.37;38.91;97952.28;4953222;28;20592;-62
2021/01/08 05:39:21;;;;;;;1.10;0.57;;;;;;;25.30;38.16;97952.22;4952332;28;20654;-62
2021/01/08 05:41:47;;;;;;;1.40;0.80;;;;;;;25.36;38.63;97957.81;4952257;28;20206;-63
2021/01/08 05:44:16;;;;;;;1.92;0.70;;;;;;;25.47;38.95;97962.69;4952639;28;20578;-63
2021/01/08 05:46:43;;;;;;;4.80;0.80;;;;;;;25.49;37.79;97961.44;4953731;28;20218;-63
2021/01/08 05:49:10;;;;;;;2.55;0.98;;;;;;;25.44;38.02;97971.09;4953324;28;20290;-62
2021/01/08 05:51:38;;;;;;;0.60;0.60;;;;;;;25.48;37.85;97965.16;4953602;28;20215;-62
2021/01/08 05:54:05;;;;;;;1.10;0.73;;;;;;;25.53;38.64;97971.78;4951351;28;20211;-59
2021/01/08 05:56:34;;;;;;;1.42;0.80;;;;;;;25.67;37.97;97968.22;4953628;28;20211;-62
2021/01/08 05:59:03;;;;;;;3.28;0.93;;;;;;;25.64;39.05;97963.22;4953883;28;20257;-62
2021/01/08 06:01:29;;;;;;;3.38;0.98;;;;;;;25.65;38.90;97964.91;4951431;28;20314;-62
2021/01/08 06:03:56;;;;;;;1.85;1.10;;;;;;;25.61;37.68;97968.97;4951682;28;20575;-62
2021/01/08 06:06:24;;;;;;;5.05;0.80;;;;;;;25.66;37.56;97969.22;4950717;28;20343;-62
2021/01/08 06:08:52;;;;;;;0.88;0.70;;;;;;;25.64;37.78;97965.91;4951285;28;20222;-62
2021/01/08 06:11:20;;;;;;;3.40;0.75;;;;;;;25.60;38.45;97970.00;4951971;28;20639;-62
2021/01/08 06:13:51;;;;;;;0.82;0.70;;;;;;;25.57;38.00;97979.22;4951487;28;20257;-62
2021/01/08 06:16:19;;;;;;;0.85;0.73;;;;;;;25.60;37.87;97976.19;4933699;29;20275;-62
2021/01/08 06:18:46;;;;;;;0.90;0.60;;;;;;;25.58;37.57;97980.91;4934141;29;20242;-63
2021/01/08 06:21:13;;;;;;;1.77;0.70;;;;;;;25.59;37.33;97981.72;4933071;29;20246;-60
2021/01/08 06:23:41;;;;;;;0.55;0.55;;;;;;;25.64;37.67;97968.59;4933315;29;20207;-63
2021/01/08 06:26:10;;;;;;;1.05;0.70;;;;;;;25.58;38.38;97969.34;4933879;29;20218;-63
2021/01/08 06:28:40;;;;;;;2.92;1.02;;;;;;;25.63;37.47;97973.13;4934279;29;20241;-63
2021/01/08 06:31:19;;;;;;;1.30;0.70;;;;;;;25.55;37.86;97972.44;4934154;29;20233;-63
2021/01/08 06:33:52;;;;;;;3.38;0.80;;;;;;;25.61;37.20;97974.31;4953116;28;20333;-63
2021/01/08 06:36:19;;;;;;;0.68;0.68;;;;;;;25.63;37.67;97988.34;4951867;28;20199;-60
2021/01/08 06:38:49;;;;;;;0.60;0.60;;;;;;;25.64;37.15;97980.13;4952134;28;20676;-62
2021/01/08 06:41:17;;;;;;;1.10;0.80;;;;;;;25.60;37.98;97980.72;4951498;28;20284;-62
2021/01/08 06:43:51;;;;;;;1.23;0.65;;;;;;;25.64;37.68;97984.66;4951890;28;20210;-62
2021/01/08 06:46:31;;;;;;;1.85;1.05;;;;;;;25.60;37.61;97988.75;4952376;28;20210;-63
2021/01/08 06:49:00;;;;;;;0.68;0.60;;;;;;;25.54;37.48;97979.63;4953138;28;20218;-62
2021/01/08 06:51:31;;;;;;;0.50;0.50;;;;;;;25.53;38.28;97987.84;4951211;28;20211;-62
2021/01/08 06:54:05;;;;;;;0.75;0.70;;;;;;;25.56;37.71;97982.09;4954550;28;20221;-60
2021/01/08 06:56:36;;;;;;;2.30;0.80;;;;;;;25.58;37.96;97990.75;4952611;28;20240;-62
2021/01/08 06:59:04;;;;;;;0.60;0.50;;;;;;;25.57;37.93;97989.13;4952240;28;20230;-63
2021/01/08 07:01:55;;;;;;;0.85;0.70;;;;;;;25.55;37.33;97993.84;4952974;28;20574;-62
2021/01/08 07:04:23;;;;;;;1.67;0.90;;;;;;;25.57;38.18;98002.50;4953120;28;20381;-62
2021/01/08 07:06:50;;;;;;;1.30;0.70;;;;;;;25.60;37.34;98002.13;4952748;28;20642;-62
2021/01/08 07:09:20;;;;;;;0.63;0.57;;;;;;;25.55;37.79;97993.84;4951244;28;20691;-62
2021/01/08 07:11:54;;;;;;;0.65;0.60;;;;;;;25.53;37.93;98004.75;4951690;28;20218;-62
2021/01/08 07:14:23;;;;;;;1.63;0.82;;;;;;;25.59;36.97;98005.81;4952383;28;20207;-62
2021/01/08 07:16:51;;;;;;;1.92;0.70;;;;;;;25.57;37.01;97999.81;4950839;28;20207;-62
2021/01/08 07:19:19;;;;;;;1.98;0.65;;;;;;;25.58;37.99;98001.47;4950790;28;20264;-62
2021/01/08 07:21:48;;;;;;;1.85;0.70;;;;;;;25.52;37.77;98002.25;4961490;28;20232;-63
2021/01/08 07:24:16;;;;;;;0.52;0.45;;;;;;;25.58;37.92;98002.31;4972146;28;20256;-61
2021/01/08 07:26:43;;;;;;;1.80;0.80;;;;;;;25.60;37.63;98007.47;4972147;28;20260;-63
2021/01/08 07:29:10;;;;;;;1.00;0.85;;;;;;;25.60;37.34;98010.16;4971453;28;20316;-58
2021/01/08 07:31:37;;;;;;;1.95;0.70;;;;;;;25.57;36.94;98013.22;4971611;28;20301;-63
2021/01/08 07:34:05;;;;;;;1.13;0.77;;;;;;;25.60;37.28;98013.66;4970582;28;20213;-62
2021/01/08 07:36:32;;;;;;;1.52;0.70;;;;;;;25.58;36.58;98017.53;4957811;28;20626;-62
2021/01/08 07:39:00;;;;;;;1.73;1.10;;;;;;;25.51;36.57;98017.47;4951094;28;20231;-63
2021/01/08 07:41:47;;;;;;;1.98;0.80;;;;;;;25.30;37.46;98011.09;4952618;28;20211;-63
2021/01/08 07:44:33;;;;;;;4.95;1.25;;;;;;;25.24;36.54;98014.47;4951331;28;20615;-67
2021/01/08 07:47:20;;;;;;;1.92;0.80;;;;;;;25.40;38.04;98020.66;4951898;28;20219;-65
2021/01/08 07:50:04;;;;;;;3.60;0.75;;;;;;;25.53;37.54;98026.16;4951951;28;20246;-66
2021/01/08 07:52:38;;;;;;;2.30;0.80;;;;;;;25.56;37.30;98030.28;4950202;28;20293;-66
2021/01/08 07:55:05;;;;;;;0.85;0.55;;;;;;;25.63;36.77;98029.34;4954624;28;20293;-67
2021/01/08 07:58:04;;;;;;;2.53;0.95;;;;;;;25.60;37.73;98035.06;4954969;28;20290;-64
2021/01/08 08:00:32;;;;;;;1.73;0.75;;;;;;;25.70;36.64;98026.72;4953588;28;20234;-65
2021/01/08 08:02:59;;;;;;;2.53;0.70;;;;;;;25.70;36.36;98031.22;4954940;28;20207;-65
2021/01/08 08:05:26;;;;;;;1.35;0.70;;;;;;;25.71;36.03;98043.59;4954844;28;20210;-63
2021/01/08 08:07:55;;;;;;;1.60;0.82;;;;;;;25.71;36.66;98044.44;4954554;28;20242;-64
2021/01/08 08:10:25;;;;;;;12.38;1.00;;;;;;;25.70;36.97;98041.94;4954861;28;20277;-66
2021/01/08 08:12:53;;;;;;;7.28;1.00;;;;;;;25.64;37.40;98041.69;4954073;28;20229;-67
2021/01/08 08:15:19;;;;;;;2.22;1.10;;;;;;;25.62;37.88;98045.59;4953938;28;20214;-67
2021/01/08 08:17:46;;;;;;;3.92;0.80;;;;;;;25.62;37.52;98045.59;4954384;28;20761;-67
2021/01/08 08:20:22;;;;;;;2.42;1.05;;;;;;;25.59;36.44;98054.00;4953903;28;20233;-65
2021/01/08 08:22:50;;;;;;;1.67;0.70;;;;;;;25.51;37.46;98054.94;4954568;28;20209;-68
2021/01/08 08:25:29;;;;;;;0.85;0.70;;;;;;;25.51;36.52;98057.59;4952987;28;20535;-67
2021/01/08 08:27:57;;;;;;;2.13;1.15;;;;;;;25.48;36.13;98058.84;4954513;28;20356;-67
2021/01/08 08:30:24;;;;;;;2.38;0.85;;;;;;;25.49;36.90;98062.34;4954382;28;20265;-67
2021/01/08 08:32:52;;;;;;;1.42;0.50;;;;;;;25.54;37.95;98069.81;4955130;28;20251;-65
2021/01/08 08:35:19;;;;;;;6.50;0.85;;;;;;;25.62;37.11;98075.03;4952463;28;20211;-68
2021/01/08 08:37:47;;;;;;;3.00;0.70;;;;;;;25.69;37.43;98070.56;4951944;28;20685;-65
2021/01/08 08:40:14;;;;;;;6.47;0.95;;;;;;;25.46;38.11;98079.63;4953428;28;20573;-66
2021/01/08 08:42:40;;;;;;;6.65;0.90;;;;;;;25.38;37.70;98082.41;4954110;28;20202;-66
2021/01/08 08:45:19;;;;;;;4.40;0.98;;;;;;;25.84;39.29;98081.22;4952545;28;20234;-67
2021/01/08 08:47:47;;;;;;;3.97;0.90;;;;;;;25.71;38.66;98081.09;4954565;28;20253;-67
2021/01/08 08:50:15;;;;;;;5.53;1.08;;;;;;;25.63;39.58;98084.72;4953123;28;20728;-67
2021/01/08 08:52:41;;;;;;;13.27;1.02;;;;;;;25.74;39.45;98084.22;4953441;28;20222;-67
2021/01/08 08:55:08;;;;;;;6.57;1.23;;;;;;;25.65;39.32;98088.06;4951981;28;20211;-67
2021/01/08 08:57:35;;;;;;;6.03;1.10;;;;;;;25.12;40.39;98093.56;4952864;28;20298;-68
2021/01/08 09:00:01;;;;;;;9.18;1.08;;;;;;;24.92;40.52;98086.09;4953814;28;20230;-68
2021/01/08 09:02:29;;;;;;;3.60;1.13;;;;;;;24.85;40.13;98089.72;4954955;28;20282;-68
2021/01/08 09:04:56;;;;;;;5.68;0.80;;;;;;;24.90;41.29;98101.50;4953538;28;20214;-68
2021/01/08 09:07:29;;;;;;;7.15;1.20;;;;;;;24.85;39.70;98100.41;4954182;28;20230;-69
2021/01/08 09:10:02;;;;;;;3.17;1.00;;;;;;;24.81;40.13;98099.91;4953202;28;20219;-66
2021/01/08 09:12:39;;;;;;;1.92;0.80;;;;;;;24.62;40.15;98095.97;4955120;28;20207;-67
2021/01/08 09:15:14;;;;;;;3.33;1.10;;;;;;;24.65;39.84;98090.25;4955928;28;20691;-67
2021/01/08 09:17:45;;;;;;;4.32;1.05;;;;;;;24.63;40.99;98089.59;4953551;28;20206;-67
2021/01/08 09:20:16;;;;;;;3.50;0.80;;;;;;;24.59;40.89;98093.66;4953516;28;20231;-67
2021/01/08 09:22:43;;;;;;;7.65;1.00;;;;;;;24.56;40.80;98091.34;4954024;28;20211;-67
2021/01/08 09:25:11;;;;;;;6.50;0.90;;;;;;;24.50;40.87;98084.84;4952603;28;20328;-68
2021/01/08 09:27:42;;;;;;;5.22;1.45;;;;;;;24.47;41.42;98092.41;4953910;28;20222;-67
2021/01/08 09:30:10;;;;;;;4.28;0.90;;;;;;;24.49;40.81;98096.53;4954417;28;20713;-66
2021/01/08 09:32:36;;;;;;;5.38;0.80;;;;;;;24.45;41.98;98095.25;4953408;28;20246;-66
2021/01/08 09:35:07;;;;;;;16.48;1.30;;;;;;;24.53;41.31;98097.84;4952494;28;20273;-67
2021/01/08 09:37:39;;;;;;;7.75;1.23;;;;;;;24.61;40.82;98096.97;4954341;28;20215;-66
2021/01/08 09:40:13;;;;;;;8.90;1.13;;;;;;;24.58;40.02;98101.84;4952980;28;20231;-66
2021/01/08 09:42:40;;;;;;;4.80;1.00;;;;;;;24.78;40.38;98100.31;4953967;28;20285;-67
2021/01/08 09:45:23;;;;;;;3.85;1.20;;;;;;;24.98;39.91;98097.06;4953387;28;20268;-67
2021/01/08 09:47:50;;;;;;;8.50;1.27;;;;;;;25.08;40.17;98093.13;4953113;28;20241;-66
2021/01/08 09:50:25;;;;;;;2.88;1.00;;;;;;;25.19;39.65;98097.16;4952633;28;20601;-66
2021/01/08 09:52:51;;;;;;;4.10;1.27;;;;;;;25.28;38.85;98097.91;4952404;28;20675;-67
2021/01/08 09:55:24;;;;;;;3.63;1.10;;;;;;;25.32;39.01;98104.53;4951944;28;20207;-67
2021/01/08 09:57:55;;;;;;;2.38;0.82;;;;;;;25.40;39.36;98103.63;4932800;29;20516;-67
2021/01/08 10:00:27;;;;;;;5.05;0.90;;;;;;;25.45;38.04;98104.72;4934326;29;20274;-67
2021/01/08 10:02:54;;;;;;;5.25;0.90;;;;;;;25.33;38.34;98102.69;4933121;29;20211;-67
2021/01/08 10:05:29;;;;;;;7.57;1.33;;;;;;;25.26;37.80;98116.84;4933284;29;20207;-67
2021/01/08 10:07:56;;;;;;;3.60;0.90;;;;;;;25.38;38.67;98114.50;4939626;29;20622;-66
2021/01/08 10:10:43;;;;;;;4.40;0.90;;;;;;;25.28;38.74;98113.94;4952691;28;20286;-66
2021/01/08 10:13:17;;;;;;;1.35;0.75;;;;;;;25.28;38.34;98113.94;4949848;28;20206;-64
2021/01/08 10:15:46;;;;;;;1.63;0.73;;;;;;;25.34;38.05;98120.41;4952263;28;20211;-64
2021/01/08 10:18:14;;;;;;;1.65;0.85;;;;;;;25.34;38.36;98110.53;4953525;28;20221;-63
2021/01/08 10:20:44;;;;;;;5.57;0.90;;;;;;;25.34;38.16;98107.84;4953044;28;20227;-63
2021/01/08 10:23:11;;;;;;;2.28;0.80;;;;;;;25.27;37.87;98114.97;4952688;28;20320;-63
2021/01/08 10:25:37;;;;;;;1.48;1.00;;;;;;;25.17;37.84;98111.75;4953209;28;20292;-64
2021/01/08 10:28:11;;;;;;;1.85;0.75;;;;;;;25.09;37.79;98110.81;4952522;28;20591;-63
2021/01/08 10:30:38;;;;;;;3.53;0.68;;;;;;;25.15;37.69;98109.25;4953312;28;20668;-63
2021/01/08 10:33:05;;;;;;;12.20;1.42;;;;;;;25.18;37.66;98111.56;4952009;28;20214;-65
2021/01/08 10:35:31;;;;;;;5.68;1.15;;;;;;;25.00;35.39;98106.56;4952151;28;20242;-64
2021/01/08 10:37:58;;;;;;;4.90;0.90;;;;;;;24.84;35.07;98112.09;4951286;28;20211;-65
2021/01/08 10:40:25;;;;;;;17.50;1.42;;;;;;;24.93;36.62;98117.19;4950210;28;20659;-68
2021/01/08 10:42:51;;;;;;;8.95;1.27;;;;;;;24.85;37.04;98111.09;4952604;28;20211;-67
2021/01/08 10:45:18;;;;;;;5.93;1.00;;;;;;;24.82;36.17;98114.13;4950956;28;20261;-67
2021/01/08 10:47:44;;;;;;;6.78;1.25;;;;;;;24.83;35.89;98111.28;4951426;28;20211;-67
2021/01/08 10:50:11;;;;;;;6.30;1.27;;;;;;;24.75;36.70;98101.50;4952295;28;20547;-66
2021/01/08 10:52:37;;;;;;;9.85;0.80;;;;;;;24.70;37.94;98098.53;4951594;28;20203;-67
2021/01/08 10:55:07;;;;;;;4.20;0.80;;;;;;;24.56;37.19;98104.69;4950777;28;20578;-67
2021/01/08 10:57:33;;;;;;;7.82;0.95;;;;;;;24.63;38.44;98105.66;4952881;28;20203;-66
2021/01/08 10:59:59;;;;;;;5.28;0.70;;;;;;;24.83;37.30;98100.59;4952995;28;20309;-66
2021/01/08 11:02:25;;;;;;;6.07;0.73;;;;;;;24.94;37.24;98096.63;4952983;28;20354;-66
2021/01/08 11:04:51;;;;;;;1.98;0.80;;;;;;;24.92;37.11;98094.13;4951534;28;20203;-65
2021/01/08 11:07:17;;;;;;;3.28;0.80;;;;;;;25.08;37.80;98101.13;4952405;28;20210;-66
2021/01/08 11:09:43;;;;;;;2.30;0.90;;;;;;;25.05;37.37;98098.81;4950874;28;20277;-67
2021/01/08 11:12:11;;;;;;;1.42;0.70;;;;;;;25.19;37.17;98094.47;4950554;28;20294;-67
2021/01/08 11:14:37;;;;;;;2.78;0.75;;;;;;;25.26;36.06;98092.75;4952049;28;20700;-67
2021/01/08 11:17:03;;;;;;;1.38;0.70;;;;;;;25.14;36.24;98088.03;4950164;28;20213;-67
2021/01/08 11:19:29;;;;;;;1.98;0.93;;;;;;;24.85;38.57;98098.56;4949700;28;20236;-66
2021/01/08 11:21:56;;;;;;;1.83;0.70;;;;;;;24.66;37.66;98088.41;4951329;28;20655;-67
2021/01/08 11:24:22;;;;;;;1.33;0.75;;;;;;;24.60;37.81;98084.63;4950635;28;20214;-66
2021/01/08 11:26:48;;;;;;;1.58;0.80;;;;;;;24.59;38.71;98085.63;4950951;28;20246;-66
2021/01/08 11:29:16;;;;;;;2.03;0.88;;;;;;;24.73;38.08;98079.47;4953557;28;20219;-66
2021/01/08 11:31:42;;;;;;;1.55;0.70;;;;;;;24.74;37.98;98075.75;4954338;28;20242;-67
2021/01/08 11:34:10;;;;;;;3.42;0.80;;;;;;;24.86;38.01;98083.34;4954757;28;20289;-66
2021/01/08 11:36:37;;;;;;;2.90;0.55;;;;;;;24.93;38.50;98081.56;4954931;28;20301;-66
2021/01/08 11:39:03;;;;;;;2.65;0.80;;;;;;;24.89;38.33;98082.97;4954707;28;20266;-66